sensor_id;sensor_type;location;lat;lon;timestamp;temperature;humidity
69206;SHT30;56319;48.920;2.332;2024-03-08T00:02:52;12.93;53.97
69206;SHT30;56319;48.920;2.332;2024-03-08T00:05:48;12.95;53.94
69206;SHT30;56319;48.920;2.332;2024-03-08T00:08:23;12.95;53.94
69206;SHT30;56319;48.920;2.332;2024-03-08T00:11:11;12.92;53.86
69206;SHT30;56319;48.920;2.332;2024-03-08T00:31:10;12.86;53.82
69206;SHT30;56319;48.920;2.332;2024-03-08T00:38:11;12.86;53.77
69206;SHT30;56319;48.920;2.332;2024-03-08T00:40:52;12.85;53.78
69206;SHT30;56319;48.920;2.332;2024-03-08T00:43:18;12.84;53.79
69206;SHT30;56319;48.920;2.332;2024-03-08T00:46:03;12.85;53.74
69206;SHT30;56319;48.920;2.332;2024-03-08T01:02:01;12.84;53.73
69206;SHT30;56319;48.920;2.332;2024-03-08T01:11:44;12.82;53.68
69206;SHT30;56319;48.920;2.332;2024-03-08T01:18:31;12.79;53.63
69206;SHT30;56319;48.920;2.332;2024-03-08T01:24:49;12.76;53.62
69206;SHT30;56319;48.920;2.332;2024-03-08T01:27:59;12.79;53.65
69206;SHT30;56319;48.920;2.332;2024-03-08T01:31:24;12.76;53.57
69206;SHT30;56319;48.920;2.332;2024-03-08T01:34:05;12.75;53.54
69206;SHT30;56319;48.920;2.332;2024-03-08T01:37:04;12.75;53.52
69206;SHT30;56319;48.920;2.332;2024-03-08T01:51:13;12.71;53.45
69206;SHT30;56319;48.920;2.332;2024-03-08T01:57:46;12.72;53.46
69206;SHT30;56319;48.920;2.332;2024-03-08T02:35:27;12.65;53.36
69206;SHT30;56319;48.920;2.332;2024-03-08T02:38:15;12.62;53.40
69206;SHT30;56319;48.920;2.332;2024-03-08T02:40:42;12.62;53.35
69206;SHT30;56319;48.920;2.332;2024-03-08T02:43:18;12.64;53.38
69206;SHT30;56319;48.920;2.332;2024-03-08T02:46:08;12.64;53.34
69206;SHT30;56319;48.920;2.332;2024-03-08T02:51:29;12.61;53.30
69206;SHT30;56319;48.920;2.332;2024-03-08T02:58:08;12.59;53.32
69206;SHT30;56319;48.920;2.332;2024-03-08T03:18:11;12.57;53.32
69206;SHT30;56319;48.920;2.332;2024-03-08T03:21:20;12.55;53.31
69206;SHT30;56319;48.920;2.332;2024-03-08T03:24:25;12.54;53.31
69206;SHT30;56319;48.920;2.332;2024-03-08T03:30:38;12.52;53.28
69206;SHT30;56319;48.920;2.332;2024-03-08T03:32:55;12.52;53.30
69206;SHT30;56319;48.920;2.332;2024-03-08T03:46:01;12.50;53.26
69206;SHT30;56319;48.920;2.332;2024-03-08T03:55:26;12.47;53.28
69206;SHT30;56319;48.920;2.332;2024-03-08T04:25:46;12.40;53.25
69206;SHT30;56319;48.920;2.332;2024-03-08T04:28:29;12.44;53.25
69206;SHT30;56319;48.920;2.332;2024-03-08T04:42:09;12.40;53.28
69206;SHT30;56319;48.920;2.332;2024-03-08T04:48:48;12.40;53.25
69206;SHT30;56319;48.920;2.332;2024-03-08T04:51:46;12.40;53.30
69206;SHT30;56319;48.920;2.332;2024-03-08T04:55:06;12.38;53.27
69206;SHT30;56319;48.920;2.332;2024-03-08T05:21:58;12.32;53.27
69206;SHT30;56319;48.920;2.332;2024-03-08T05:48:26;12.30;53.24
69206;SHT30;56319;48.920;2.332;2024-03-08T06:01:45;12.26;53.19
69206;SHT30;56319;48.920;2.332;2024-03-08T06:04:06;12.26;53.23
69206;SHT30;56319;48.920;2.332;2024-03-08T06:13:44;12.23;53.19
69206;SHT30;56319;48.920;2.332;2024-03-08T06:16:19;12.22;53.21
69206;SHT30;56319;48.920;2.332;2024-03-08T06:26:36;12.20;53.21
69206;SHT30;56319;48.920;2.332;2024-03-08T06:28:48;12.17;53.20
69206;SHT30;56319;48.920;2.332;2024-03-08T06:31:14;12.22;53.20
69206;SHT30;56319;48.920;2.332;2024-03-08T06:33:43;12.19;53.19
69206;SHT30;56319;48.920;2.332;2024-03-08T06:36:11;12.20;53.16
69206;SHT30;56319;48.920;2.332;2024-03-08T06:38:46;12.20;53.19
69206;SHT30;56319;48.920;2.332;2024-03-08T06:41:15;12.23;53.21
69206;SHT30;56319;48.920;2.332;2024-03-08T06:43:42;12.17;53.14
69206;SHT30;56319;48.920;2.332;2024-03-08T06:46:22;12.20;53.16
69206;SHT30;56319;48.920;2.332;2024-03-08T06:48:48;12.20;53.11
69206;SHT30;56319;48.920;2.332;2024-03-08T06:51:19;12.19;53.09
69206;SHT30;56319;48.920;2.332;2024-03-08T06:56:36;12.19;53.10
69206;SHT30;56319;48.920;2.332;2024-03-08T06:59:02;12.19;53.13
69206;SHT30;56319;48.920;2.332;2024-03-08T07:02:04;12.20;53.11
69206;SHT30;56319;48.920;2.332;2024-03-08T07:04:44;12.17;53.10
69206;SHT30;56319;48.920;2.332;2024-03-08T07:10:35;12.19;53.06
69206;SHT30;56319;48.920;2.332;2024-03-08T07:13:02;12.17;53.06
69206;SHT30;56319;48.920;2.332;2024-03-08T07:15:37;12.17;53.08
69206;SHT30;56319;48.920;2.332;2024-03-08T07:18:09;12.17;53.09
69206;SHT30;56319;48.920;2.332;2024-03-08T07:20:40;12.16;53.08
69206;SHT30;56319;48.920;2.332;2024-03-08T07:23:36;12.19;53.07
69206;SHT30;56319;48.920;2.332;2024-03-08T07:29:00;12.19;53.09
69206;SHT30;56319;48.920;2.332;2024-03-08T07:31:26;12.17;53.04
69206;SHT30;56319;48.920;2.332;2024-03-08T07:34:03;12.19;53.02
69206;SHT30;56319;48.920;2.332;2024-03-08T07:36:36;12.17;53.02
69206;SHT30;56319;48.920;2.332;2024-03-08T07:39:12;12.19;53.02
69206;SHT30;56319;48.920;2.332;2024-03-08T07:41:39;12.19;52.99
69206;SHT30;56319;48.920;2.332;2024-03-08T07:44:07;12.16;53.02
69206;SHT30;56319;48.920;2.332;2024-03-08T07:47:18;12.19;53.02
69206;SHT30;56319;48.920;2.332;2024-03-08T07:49:32;12.17;53.01
69206;SHT30;56319;48.920;2.332;2024-03-08T07:52:07;12.17;52.99
69206;SHT30;56319;48.920;2.332;2024-03-08T07:54:36;12.16;52.98
69206;SHT30;56319;48.920;2.332;2024-03-08T07:57:02;12.17;52.99
69206;SHT30;56319;48.920;2.332;2024-03-08T07:59:29;12.20;52.96
69206;SHT30;56319;48.920;2.332;2024-03-08T08:01:56;12.19;52.99
69206;SHT30;56319;48.920;2.332;2024-03-08T08:04:25;12.17;52.97
69206;SHT30;56319;48.920;2.332;2024-03-08T08:06:53;12.17;52.96
69206;SHT30;56319;48.920;2.332;2024-03-08T08:09:20;12.19;52.95
69206;SHT30;56319;48.920;2.332;2024-03-08T08:12:09;12.17;52.95
69206;SHT30;56319;48.920;2.332;2024-03-08T08:14:55;12.22;53.00
69206;SHT30;56319;48.920;2.332;2024-03-08T08:17:22;12.20;52.97
69206;SHT30;56319;48.920;2.332;2024-03-08T08:19:48;12.17;52.94
69206;SHT30;56319;48.920;2.332;2024-03-08T08:22:17;12.20;52.95
69206;SHT30;56319;48.920;2.332;2024-03-08T08:24:43;12.22;52.93
69206;SHT30;56319;48.920;2.332;2024-03-08T08:27:27;12.22;52.92
69206;SHT30;56319;48.920;2.332;2024-03-08T08:29:59;12.20;52.97
69206;SHT30;56319;48.920;2.332;2024-03-08T08:32:43;12.22;52.93
69206;SHT30;56319;48.920;2.332;2024-03-08T08:35:18;12.20;52.94
69206;SHT30;56319;48.920;2.332;2024-03-08T08:37:45;12.22;52.95
69206;SHT30;56319;48.920;2.332;2024-03-08T08:40:19;12.19;52.90
69206;SHT30;56319;48.920;2.332;2024-03-08T08:43:17;12.22;52.91
69206;SHT30;56319;48.920;2.332;2024-03-08T08:46:12;12.22;52.91
69206;SHT30;56319;48.920;2.332;2024-03-08T08:48:59;12.22;52.88
69206;SHT30;56319;48.920;2.332;2024-03-08T08:54:16;12.22;52.88
69206;SHT30;56319;48.920;2.332;2024-03-08T09:00:09;12.23;52.89
69206;SHT30;56319;48.920;2.332;2024-03-08T09:03:00;12.23;52.88
69206;SHT30;56319;48.920;2.332;2024-03-08T09:05:38;12.24;52.85
69206;SHT30;56319;48.920;2.332;2024-03-08T09:09:04;12.24;52.88
69206;SHT30;56319;48.920;2.332;2024-03-08T09:14:09;12.26;52.87
69206;SHT30;56319;48.920;2.332;2024-03-08T09:16:49;12.26;52.87
69206;SHT30;56319;48.920;2.332;2024-03-08T09:19:43;12.23;52.90
69206;SHT30;56319;48.920;2.332;2024-03-08T09:22:13;12.24;52.84
69206;SHT30;56319;48.920;2.332;2024-03-08T09:24:42;12.27;52.84
69206;SHT30;56319;48.920;2.332;2024-03-08T09:30:00;12.29;52.80
69206;SHT30;56319;48.920;2.332;2024-03-08T09:32:38;12.27;52.80
69206;SHT30;56319;48.920;2.332;2024-03-08T09:35:36;12.29;52.80
69206;SHT30;56319;48.920;2.332;2024-03-08T09:41:11;12.29;52.78
69206;SHT30;56319;48.920;2.332;2024-03-08T09:43:48;12.29;52.76
69206;SHT30;56319;48.920;2.332;2024-03-08T09:46:18;12.30;52.77
69206;SHT30;56319;48.920;2.332;2024-03-08T09:49:01;12.32;52.74
69206;SHT30;56319;48.920;2.332;2024-03-08T09:51:39;12.30;52.80
69206;SHT30;56319;48.920;2.332;2024-03-08T09:54:23;12.34;52.73
69206;SHT30;56319;48.920;2.332;2024-03-08T09:56:59;12.33;52.76
69206;SHT30;56319;48.920;2.332;2024-03-08T09:59:45;12.34;52.73
69206;SHT30;56319;48.920;2.332;2024-03-08T10:02:15;12.37;52.74
69206;SHT30;56319;48.920;2.332;2024-03-08T10:05:07;12.36;52.72
69206;SHT30;56319;48.920;2.332;2024-03-08T10:07:45;12.37;52.71
69206;SHT30;56319;48.920;2.332;2024-03-08T10:10:14;12.38;52.70
69206;SHT30;56319;48.920;2.332;2024-03-08T10:12:40;12.41;52.74
69206;SHT30;56319;48.920;2.332;2024-03-08T10:15:18;12.43;52.71
69206;SHT30;56319;48.920;2.332;2024-03-08T10:17:46;12.43;52.73
69206;SHT30;56319;48.920;2.332;2024-03-08T10:20:32;12.47;52.73
69206;SHT30;56319;48.920;2.332;2024-03-08T10:23:03;12.48;52.70
69206;SHT30;56319;48.920;2.332;2024-03-08T10:25:31;12.48;52.71
69206;SHT30;56319;48.920;2.332;2024-03-08T10:27:57;12.51;52.76
69206;SHT30;56319;48.920;2.332;2024-03-08T10:30:23;12.54;52.74
69206;SHT30;56319;48.920;2.332;2024-03-08T10:32:52;12.55;52.72
69206;SHT30;56319;48.920;2.332;2024-03-08T10:35:27;12.57;52.71
69206;SHT30;56319;48.920;2.332;2024-03-08T10:37:59;12.59;52.67
69206;SHT30;56319;48.920;2.332;2024-03-08T10:40:28;12.61;52.66
69206;SHT30;56319;48.920;2.332;2024-03-08T10:49:30;12.71;52.60
69206;SHT30;56319;48.920;2.332;2024-03-08T10:52:45;12.72;52.65
69206;SHT30;56319;48.920;2.332;2024-03-08T10:55:28;12.75;52.56
69206;SHT30;56319;48.920;2.332;2024-03-08T10:57:54;12.82;52.54
69206;SHT30;56319;48.920;2.332;2024-03-08T11:00:27;12.84;52.56
69206;SHT30;56319;48.920;2.332;2024-03-08T11:03:04;12.84;52.49
69206;SHT30;56319;48.920;2.332;2024-03-08T11:05:50;12.89;52.42
69206;SHT30;56319;48.920;2.332;2024-03-08T11:08:39;12.92;52.43
69206;SHT30;56319;48.920;2.332;2024-03-08T11:11:28;12.96;52.39
69206;SHT30;56319;48.920;2.332;2024-03-08T11:13:57;13.02;52.34
69206;SHT30;56319;48.920;2.332;2024-03-08T11:16:39;13.04;52.29
